Time;durP1;ratioP1;P1;durP2;ratioP2;P2;SDS_P1;SDS_P2;PMS_P1;PMS_P2;Temp;Humidity;BMP_temperature;BMP_pressure;BME280_temperature;BME280_humidity;BME280_pressure;Samples;Min_cycle;Max_cycle;Signal;HPM_P1;HPM_P2
2023/07/16 00:01:45;;;;;;;3.55;2.40;;;20.50;99.90;;;;;;5033466;28;20087;-53
2023/07/16 00:04:10;;;;;;;3.95;2.63;;;20.50;99.90;;;;;;5033455;28;20025;-53
2023/07/16 00:06:36;;;;;;;5.28;2.90;;;20.50;99.90;;;;;;5031575;28;20105;-51
2023/07/16 00:09:01;;;;;;;8.30;2.97;;;20.40;99.90;;;;;;5033455;28;20465;-52
2023/07/16 00:11:27;;;;;;;7.45;2.50;;;20.40;99.90;;;;;;5033321;28;20045;-54
2023/07/16 00:17:27;;;;;;;8.45;2.53;;;20.40;99.90;;;;;;5788788;22;20495;-52
2023/07/16 00:19:52;;;;;;;4.72;3.00;;;20.30;99.90;;;;;;5028655;28;20053;-52
2023/07/16 00:22:18;;;;;;;5.13;2.75;;;20.20;99.90;;;;;;5025176;28;20037;-54
2023/07/16 00:24:43;;;;;;;5.10;1.75;;;20.20;99.90;;;;;;5048000;28;20049;-52
2023/07/16 00:27:08;;;;;;;3.97;2.53;;;20.10;99.90;;;;;;5033237;28;20068;-54
2023/07/16 00:29:34;;;;;;;5.70;2.08;;;20.10;99.90;;;;;;5033276;28;20053;-55
2023/07/16 00:31:59;;;;;;;4.35;1.85;;;20.10;99.90;;;;;;5033683;28;20026;-56
2023/07/16 00:34:25;;;;;;;4.85;2.20;;;20.10;99.90;;;;;;5032966;28;20034;-55
2023/07/16 00:36:50;;;;;;;7.00;2.17;;;20.00;99.90;;;;;;5032944;28;20025;-56
2023/07/16 00:39:16;;;;;;;1.88;1.45;;;20.00;99.90;;;;;;5033023;28;20076;-52
2023/07/16 00:41:41;;;;;;;11.05;2.60;;;19.90;99.90;;;;;;5032931;28;20036;-52
2023/07/16 00:44:07;;;;;;;2.67;1.73;;;19.90;99.90;;;;;;5032877;28;20064;-50
2023/07/16 00:46:33;;;;;;;2.10;1.90;;;19.90;99.90;;;;;;5032425;28;20029;-53
2023/07/16 00:48:58;;;;;;;5.40;2.10;;;19.80;99.90;;;;;;5032516;28;20026;-55
2023/07/16 00:51:25;;;;;;;3.30;1.65;;;19.80;99.90;;;;;;5032785;28;20315;-52
2023/07/16 00:53:50;;;;;;;4.55;1.88;;;19.70;99.90;;;;;;5032617;28;20112;-54
2023/07/16 00:56:20;;;;;;;2.42;1.80;;;19.70;99.90;;;;;;5032211;28;20148;-53
2023/07/16 00:58:46;;;;;;;2.42;1.75;;;19.70;99.90;;;;;;5032704;28;20066;-53
2023/07/16 01:01:11;;;;;;;3.20;1.50;;;19.70;99.90;;;;;;5032533;28;20019;-54
2023/07/16 01:03:37;;;;;;;2.05;1.73;;;19.70;99.90;;;;;;5032288;28;20438;-52
2023/07/16 01:06:23;;;;;;;1.42;1.33;;;19.70;99.90;;;;;;5032090;28;20029;-57
2023/07/16 01:09:03;;;;;;;2.50;1.70;;;19.70;99.90;;;;;;5032458;28;20029;-53
2023/07/16 01:11:30;;;;;;;1.50;1.38;;;19.60;99.90;;;;;;5032321;28;20527;-52
2023/07/16 01:13:57;;;;;;;5.75;1.63;;;19.60;99.90;;;;;;5032104;28;20045;-53
2023/07/16 01:16:24;;;;;;;1.92;1.63;;;19.60;99.90;;;;;;5031838;28;20033;-50
2023/07/16 01:18:50;;;;;;;3.92;1.90;;;19.60;99.90;;;;;;5031789;28;20026;-55
2023/07/16 01:21:19;;;;;;;4.30;1.85;;;19.60;99.90;;;;;;5032304;28;20060;-54
2023/07/16 01:24:17;;;;;;;4.55;1.63;;;19.60;99.90;;;;;;5031821;28;20039;-55
2023/07/16 01:27:09;;;;;;;2.75;1.73;;;19.60;99.90;;;;;;5031713;28;20017;-55
2023/07/16 01:29:37;;;;;;;9.07;1.90;;;19.50;99.90;;;;;;5032211;28;20048;-55
2023/07/16 01:32:07;;;;;;;2.45;2.25;;;19.40;99.90;;;;;;5031843;28;20400;-53
2023/07/16 01:34:34;;;;;;;2.55;2.13;;;19.40;99.90;;;;;;5031263;28;20040;-54
2023/07/16 01:37:04;;;;;;;1.73;1.50;;;19.30;99.90;;;;;;5031672;28;20647;-52
2023/07/16 01:39:30;;;;;;;4.50;1.70;;;19.30;99.90;;;;;;5031930;28;20022;-51
2023/07/16 01:41:56;;;;;;;3.30;2.20;;;19.20;99.90;;;;;;5031932;28;20022;-53
2023/07/16 01:44:22;;;;;;;1.80;1.70;;;19.20;99.90;;;;;;5032040;28;20028;-53
2023/07/16 01:47:15;;;;;;;7.85;2.25;;;19.10;99.90;;;;;;5031501;28;20029;-55
2023/07/16 01:49:44;;;;;;;6.28;2.60;;;19.00;99.90;;;;;;5031718;28;20032;-55
2023/07/16 01:52:10;;;;;;;4.00;2.38;;;19.00;99.90;;;;;;5031720;28;20480;-52
2023/07/16 01:54:36;;;;;;;4.47;1.80;;;19.00;99.90;;;;;;5031637;28;20032;-52
2023/07/16 01:57:01;;;;;;;8.55;2.00;;;19.00;99.90;;;;;;5031338;28;20025;-51
2023/07/16 01:59:27;;;;;;;2.58;1.90;;;18.90;99.90;;;;;;5031589;28;20051;-58
2023/07/16 02:01:52;;;;;;;4.03;1.80;;;18.80;99.90;;;;;;5031566;28;20047;-52
2023/07/16 02:04:18;;;;;;;2.22;2.03;;;18.80;99.90;;;;;;5031566;28;20494;-53
2023/07/16 02:06:43;;;;;;;5.78;2.05;;;18.80;99.90;;;;;;5031213;28;20242;-53
2023/07/16 02:09:10;;;;;;;2.60;2.00;;;18.80;99.90;;;;;;5031449;28;20043;-53
2023/07/16 02:11:35;;;;;;;3.42;2.53;;;18.70;99.90;;;;;;5031474;28;20033;-55
2023/07/16 02:14:01;;;;;;;5.70;1.90;;;18.70;99.90;;;;;;5031282;28;20407;-55
2023/07/16 02:16:26;;;;;;;6.18;2.28;;;18.70;99.90;;;;;;5030720;28;20034;-53
2023/07/16 02:18:52;;;;;;;7.07;2.08;;;18.60;99.90;;;;;;5031295;28;20018;-52
2023/07/16 02:21:17;;;;;;;3.72;2.00;;;18.70;99.90;;;;;;5031412;28;20399;-53
2023/07/16 02:23:43;;;;;;;7.28;2.13;;;18.70;99.90;;;;;;5031400;28;20674;-52
2023/07/16 02:26:08;;;;;;;2.97;2.10;;;18.60;99.90;;;;;;5031038;28;20404;-52
2023/07/16 02:28:34;;;;;;;5.10;2.42;;;18.60;99.90;;;;;;5031245;28;20045;-56
2023/07/16 02:31:00;;;;;;;6.28;2.13;;;18.60;99.90;;;;;;5031261;28;20026;-53
2023/07/16 02:33:25;;;;;;;3.92;1.80;;;18.60;99.90;;;;;;5031118;28;20038;-55
2023/07/16 02:35:53;;;;;;;4.03;1.95;;;18.60;99.90;;;;;;5032725;28;20033;-53
2023/07/16 02:38:19;;;;;;;5.47;2.00;;;18.60;99.90;;;;;;5035282;28;20057;-54
2023/07/16 02:40:45;;;;;;;3.17;2.05;;;18.60;99.90;;;;;;5035219;28;20119;-54
2023/07/16 02:43:11;;;;;;;11.88;2.70;;;18.60;99.90;;;;;;5035252;28;20017;-54
2023/07/16 02:45:37;;;;;;;8.18;2.53;;;18.60;99.90;;;;;;5034998;28;20403;-54
2023/07/16 02:48:02;;;;;;;4.88;2.25;;;18.70;99.90;;;;;;5034833;28;20048;-55
2023/07/16 02:50:28;;;;;;;6.82;2.50;;;18.70;99.90;;;;;;5035308;28;20056;-55
2023/07/16 02:52:53;;;;;;;6.45;2.30;;;18.60;99.90;;;;;;5035170;28;20116;-53
2023/07/16 02:55:19;;;;;;;8.98;2.25;;;18.70;99.90;;;;;;5035198;28;20060;-54
2023/07/16 02:57:44;;;;;;;7.22;2.30;;;18.70;99.90;;;;;;5033467;28;20495;-53
2023/07/16 03:00:10;;;;;;;8.18;2.53;;;18.60;99.90;;;;;;5035001;28;20061;-54
2023/07/16 03:02:36;;;;;;;6.70;1.98;;;18.60;99.90;;;;;;5034902;28;20024;-52
2023/07/16 03:05:02;;;;;;;8.63;2.17;;;18.50;99.90;;;;;;5035109;28;20075;-53
2023/07/16 03:07:27;;;;;;;5.90;2.60;;;18.50;99.90;;;;;;5034308;28;20025;-52
2023/07/16 03:09:53;;;;;;;11.38;2.70;;;18.50;99.90;;;;;;5033357;28;20523;-52
2023/07/16 03:12:18;;;;;;;7.07;2.08;;;18.40;99.90;;;;;;5034609;28;20113;-50
2023/07/16 03:14:43;;;;;;;10.43;2.65;;;18.30;99.90;;;;;;5034476;28;20500;-55
2023/07/16 03:17:09;;;;;;;8.73;2.50;;;18.30;99.90;;;;;;5034036;28;20033;-51
2023/07/16 03:19:34;;;;;;;2.83;2.00;;;18.30;99.90;;;;;;5034758;28;20049;-53
2023/07/16 03:22:00;;;;;;;9.70;2.92;;;18.30;99.90;;;;;;5034388;28;20412;-54
2023/07/16 03:24:25;;;;;;;7.57;2.47;;;18.20;99.90;;;;;;5034366;28;20078;-52
2023/07/16 03:26:51;;;;;;;7.15;2.25;;;18.20;99.90;;;;;;5033901;28;20068;-53
2023/07/16 03:29:16;;;;;;;8.73;2.33;;;18.20;99.90;;;;;;5034228;28;20476;-52
2023/07/16 03:31:42;;;;;;;8.00;2.20;;;18.10;99.90;;;;;;5034326;28;20484;-56
2023/07/16 03:34:07;;;;;;;10.75;3.03;;;18.10;99.90;;;;;;5034117;28;20480;-53
2023/07/16 03:36:33;;;;;;;4.40;2.42;;;18.00;99.90;;;;;;5034176;28;20021;-55
2023/07/16 03:38:58;;;;;;;7.20;2.25;;;18.00;99.90;;;;;;5034136;28;20053;-55
2023/07/16 03:41:24;;;;;;;11.32;2.70;;;17.90;99.90;;;;;;5033998;28;20029;-52
2023/07/16 03:43:49;;;;;;;10.70;3.15;;;17.90;99.90;;;;;;5034229;28;20030;-50
2023/07/16 03:46:15;;;;;;;6.22;2.35;;;17.80;99.90;;;;;;5033498;28;20041;-52
2023/07/16 03:48:40;;;;;;;8.07;3.15;;;17.80;99.90;;;;;;5033917;28;20076;-51
2023/07/16 03:51:06;;;;;;;13.68;3.38;;;17.80;99.90;;;;;;5034196;28;20097;-54
2023/07/16 03:53:31;;;;;;;8.20;2.45;;;17.80;99.90;;;;;;5033767;28;20029;-51
2023/07/16 03:55:57;;;;;;;10.13;2.58;;;17.80;99.90;;;;;;5033421;28;20021;-56
2023/07/16 03:58:22;;;;;;;13.88;3.00;;;17.70;99.90;;;;;;5033667;28;20022;-51
2023/07/16 04:00:48;;;;;;;9.60;2.60;;;17.70;99.90;;;;;;5032611;28;20025;-55
2023/07/16 04:03:13;;;;;;;10.13;2.67;;;17.70;99.90;;;;;;5033668;28;20438;-55
2023/07/16 04:05:39;;;;;;;6.03;2.80;;;17.70;99.90;;;;;;5032195;28;20459;-50
2023/07/16 04:08:04;;;;;;;6.65;2.80;;;17.70;99.90;;;;;;5033456;28;20071;-55
2023/07/16 04:10:30;;;;;;;3.45;2.30;;;17.70;99.90;;;;;;5033483;28;20022;-52
2023/07/16 04:12:55;;;;;;;8.00;3.15;;;17.70;99.90;;;;;;5032065;28;20027;-52
2023/07/16 04:15:21;;;;;;;15.20;3.00;;;17.70;99.90;;;;;;5033376;28;20037;-52
2023/07/16 04:17:46;;;;;;;9.40;3.42;;;17.70;99.90;;;;;;5032820;28;20025;-54
2023/07/16 04:20:12;;;;;;;5.38;2.40;;;17.70;99.90;;;;;;5033345;28;20083;-55
2023/07/16 04:22:38;;;;;;;10.35;2.45;;;17.70;99.90;;;;;;5033242;28;20021;-54
2023/07/16 04:25:03;;;;;;;6.80;2.22;;;17.80;99.90;;;;;;5033229;28;20037;-52
2023/07/16 04:27:29;;;;;;;5.00;2.55;;;17.80;99.90;;;;;;5032813;28;20029;-54
2023/07/16 04:29:54;;;;;;;2.65;2.20;;;17.90;99.90;;;;;;5033187;28;20441;-55
2023/07/16 04:32:20;;;;;;;6.43;2.38;;;17.90;99.90;;;;;;5033142;28;20405;-52
2023/07/16 04:34:46;;;;;;;6.22;2.85;;;17.90;99.90;;;;;;5032961;28;20048;-55
2023/07/16 04:37:11;;;;;;;10.63;2.72;;;18.00;99.90;;;;;;5032617;28;20468;-52
2023/07/16 04:39:37;;;;;;;7.28;2.22;;;18.00;99.90;;;;;;5032882;28;20034;-52
2023/07/16 04:42:02;;;;;;;6.15;2.80;;;18.00;99.90;;;;;;5031558;28;20021;-53
2023/07/16 04:44:28;;;;;;;6.78;2.63;;;18.10;99.90;;;;;;5032760;28;20029;-56
2023/07/16 04:46:53;;;;;;;5.10;2.15;;;18.20;99.90;;;;;;5032368;28;20071;-50
2023/07/16 04:49:19;;;;;;;8.45;2.25;;;18.30;99.90;;;;;;5032768;28;20033;-55
2023/07/16 04:51:44;;;;;;;5.30;2.03;;;18.40;99.90;;;;;;5032712;28;20061;-51
2023/07/16 04:54:10;;;;;;;3.92;2.05;;;18.60;99.90;;;;;;5032566;28;20038;-51
2023/07/16 04:56:35;;;;;;;5.20;2.05;;;18.70;99.90;;;;;;5032152;28;20021;-54
2023/07/16 04:59:01;;;;;;;8.25;1.92;;;18.90;99.90;;;;;;5032034;28;20101;-53
2023/07/16 05:01:27;;;;;;;5.97;1.92;;;19.20;99.90;;;;;;5032539;28;20020;-55
2023/07/16 05:03:52;;;;;;;11.05;2.80;;;19.70;99.90;;;;;;5032468;28;20087;-51
2023/07/16 05:06:18;;;;;;;7.47;2.13;;;20.20;99.90;;;;;;5032127;28;20029;-55
2023/07/16 05:08:43;;;;;;;9.77;2.25;;;20.80;99.90;;;;;;5032366;28;20488;-54
2023/07/16 05:11:09;;;;;;;8.70;2.00;;;21.50;99.90;;;;;;5031252;28;20080;-56
2023/07/16 05:13:34;;;;;;;8.25;1.70;;;22.30;99.90;;;;;;5032392;28;20036;-56
2023/07/16 05:16:00;;;;;;;5.82;1.70;;;23.00;99.90;;;;;;5031978;28;20056;-55
2023/07/16 05:18:25;;;;;;;6.80;1.50;;;23.30;99.90;;;;;;5031915;28;20384;-57
2023/07/16 05:20:51;;;;;;;5.20;1.50;;;23.50;99.90;;;;;;5032077;28;20099;-56
2023/07/16 05:23:16;;;;;;;5.63;1.70;;;23.90;99.90;;;;;;5032147;28;20378;-54
2023/07/16 05:25:49;;;;;;;4.93;1.80;;;24.20;99.90;;;;;;5030903;28;20481;-51
2023/07/16 05:28:16;;;;;;;6.93;1.83;;;24.30;99.90;;;;;;5030777;28;20435;-55
2023/07/16 05:30:41;;;;;;;8.73;1.85;;;24.60;99.90;;;;;;5032453;28;20109;-54
2023/07/16 05:33:07;;;;;;;8.13;1.83;;;24.80;99.90;;;;;;5031765;28;20156;-53
2023/07/16 05:35:32;;;;;;;10.48;2.50;;;25.00;99.90;;;;;;5031923;28;20112;-54
2023/07/16 05:37:58;;;;;;;6.05;1.60;;;25.10;99.90;;;;;;5031563;28;20477;-52
2023/07/16 05:40:23;;;;;;;3.65;1.70;;;25.00;99.90;;;;;;5032010;28;20493;-56
2023/07/16 05:42:49;;;;;;;10.13;2.40;;;24.90;99.90;;;;;;5032022;28;20025;-55
2023/07/16 05:45:14;;;;;;;7.82;2.72;;;25.10;99.90;;;;;;5032051;28;20025;-52
2023/07/16 05:47:40;;;;;;;7.88;1.73;;;25.20;99.90;;;;;;5031636;28;20144;-52
2023/07/16 05:50:06;;;;;;;8.73;2.05;;;25.30;99.90;;;;;;5031868;28;20029;-54
2023/07/16 05:52:31;;;;;;;5.13;1.70;;;25.50;99.90;;;;;;5031885;28;20067;-55
2023/07/16 05:54:57;;;;;;;6.28;1.70;;;25.50;99.90;;;;;;5031732;28;20025;-56
2023/07/16 05:57:22;;;;;;;2.65;1.35;;;25.40;99.90;;;;;;5031493;28;20530;-56
2023/07/16 05:59:48;;;;;;;4.07;1.85;;;25.70;99.90;;;;;;5031728;28;20020;-54
2023/07/16 06:02:13;;;;;;;10.85;2.00;;;25.90;99.90;;;;;;5031437;28;20488;-54
2023/07/16 06:04:39;;;;;;;6.00;1.65;;;26.20;99.90;;;;;;5031693;28;20067;-51
2023/07/16 06:07:05;;;;;;;4.20;2.00;;;26.10;99.90;;;;;;5031078;28;20388;-56
2023/07/16 06:09:31;;;;;;;4.57;1.83;;;26.00;99.90;;;;;;5031046;28;20029;-50
2023/07/16 06:11:56;;;;;;;12.60;2.08;;;26.10;99.90;;;;;;5029797;28;20029;-54
2023/07/16 06:14:22;;;;;;;10.57;3.38;;;25.90;99.90;;;;;;5031480;28;20036;-53
2023/07/16 06:16:47;;;;;;;6.07;1.70;;;25.90;99.80;;;;;;5030760;28;20022;-54
2023/07/16 06:19:13;;;;;;;5.43;2.22;;;25.90;99.90;;;;;;5031375;28;20148;-53
2023/07/16 06:21:38;;;;;;;6.22;2.10;;;26.50;99.60;;;;;;5031318;28;20018;-55
2023/07/16 06:24:04;;;;;;;4.53;1.50;;;27.30;98.60;;;;;;5031289;28;20049;-51
2023/07/16 06:26:29;;;;;;;7.28;2.03;;;27.90;97.80;;;;;;5030937;28;20103;-52
2023/07/16 06:28:55;;;;;;;8.93;2.20;;;28.50;96.30;;;;;;5031178;28;20516;-53
2023/07/16 06:31:20;;;;;;;9.55;1.83;;;28.00;95.40;;;;;;5032274;28;20034;-54
2023/07/16 06:33:46;;;;;;;8.48;2.00;;;28.10;96.00;;;;;;5030995;28;20484;-53
2023/07/16 06:36:12;;;;;;;6.38;2.10;;;28.10;95.40;;;;;;5029445;28;20117;-49
2023/07/16 06:38:38;;;;;;;8.48;2.30;;;28.10;95.50;;;;;;5031172;28;20033;-55
2023/07/16 06:41:03;;;;;;;5.78;1.73;;;27.70;95.90;;;;;;5031276;28;20403;-54
2023/07/16 06:43:29;;;;;;;6.28;1.98;;;27.80;95.90;;;;;;5031198;28;20108;-54
2023/07/16 06:45:54;;;;;;;3.17;1.95;;;27.80;96.00;;;;;;5030661;28;20026;-52
2023/07/16 06:48:20;;;;;;;5.15;2.00;;;27.70;95.40;;;;;;5031256;28;20034;-52
2023/07/16 06:50:45;;;;;;;5.95;1.80;;;28.10;95.10;;;;;;5031200;28;20442;-55
2023/07/16 06:53:11;;;;;;;5.55;1.92;;;28.90;94.90;;;;;;5031144;28;20026;-54
2023/07/16 06:55:37;;;;;;;11.82;2.67;;;28.80;92.80;;;;;;5031038;28;20516;-53
2023/07/16 06:58:03;;;;;;;8.43;2.20;;;28.80;92.80;;;;;;5029256;28;20093;-55
2023/07/16 07:00:29;;;;;;;7.30;2.65;;;28.50;92.70;;;;;;5031048;28;20028;-52
2023/07/16 07:02:54;;;;;;;5.25;2.10;;;28.60;92.90;;;;;;5030917;28;20053;-54
2023/07/16 07:05:20;;;;;;;5.30;1.80;;;28.30;92.70;;;;;;5031004;28;20021;-57
2023/07/16 07:07:45;;;;;;;4.88;1.98;;;28.60;91.70;;;;;;5030574;28;20021;-56
2023/07/16 07:10:12;;;;;;;7.22;1.90;;;28.80;91.60;;;;;;5030992;28;20029;-52
2023/07/16 07:12:38;;;;;;;9.85;2.15;;;28.90;91.40;;;;;;5030876;28;20022;-54
2023/07/16 07:15:08;;;;;;;8.32;2.38;;;29.20;90.90;;;;;;5030695;28;20032;-54
2023/07/16 07:17:33;;;;;;;5.50;2.00;;;29.10;90.80;;;;;;5028921;28;20056;-54
2023/07/16 07:19:59;;;;;;;7.60;2.63;;;29.40;90.80;;;;;;5030661;28;20509;-53
2023/07/16 07:22:25;;;;;;;5.65;2.38;;;29.80;89.50;;;;;;5032692;28;20025;-51
2023/07/16 07:24:50;;;;;;;4.78;2.60;;;28.60;89.50;;;;;;5034191;28;20116;-56
2023/07/16 07:27:16;;;;;;;5.57;2.15;;;28.40;90.20;;;;;;5033900;28;20452;-52
2023/07/16 07:29:41;;;;;;;7.55;2.10;;;28.50;90.20;;;;;;5034127;28;20029;-51
2023/07/16 07:32:07;;;;;;;5.38;2.33;;;29.30;90.20;;;;;;5034550;28;20033;-54
2023/07/16 07:34:33;;;;;;;7.97;2.22;;;29.70;87.50;;;;;;5033890;28;20477;-54
2023/07/16 07:36:58;;;;;;;7.03;2.10;;;29.80;86.90;;;;;;5034106;28;20383;-51
2023/07/16 07:39:24;;;;;;;4.47;1.85;;;28.90;87.10;;;;;;5033910;28;20040;-55
2023/07/16 07:41:49;;;;;;;7.20;2.05;;;29.10;89.20;;;;;;5034158;28;20025;-56
2023/07/16 07:44:15;;;;;;;6.75;2.53;;;28.80;87.70;;;;;;5034096;28;20030;-51
2023/07/16 07:46:40;;;;;;;7.45;2.13;;;28.10;89.60;;;;;;5033798;28;20029;-54
2023/07/16 07:49:06;;;;;;;6.65;2.92;;;27.50;90.80;;;;;;5034072;28;20136;-55
2023/07/16 07:51:31;;;;;;;8.65;2.70;;;27.30;91.10;;;;;;5034005;28;20029;-53
2023/07/16 07:53:57;;;;;;;9.90;2.85;;;27.50;91.30;;;;;;5033977;28;20471;-55
2023/07/16 07:56:22;;;;;;;5.82;2.50;;;27.80;90.30;;;;;;5033572;28;20025;-54
2023/07/16 07:58:48;;;;;;;5.57;2.25;;;28.20;89.90;;;;;;5033950;28;20025;-54
2023/07/16 08:01:13;;;;;;;8.77;2.17;;;28.00;86.70;;;;;;5033692;28;20025;-51
2023/07/16 08:03:39;;;;;;;4.88;2.20;;;28.30;88.00;;;;;;5033534;28;20029;-51
2023/07/16 08:06:04;;;;;;;5.18;2.20;;;27.50;86.50;;;;;;5033246;28;20041;-53
2023/07/16 08:08:30;;;;;;;7.32;2.58;;;27.00;89.60;;;;;;5033527;28;20043;-51
2023/07/16 08:10:55;;;;;;;5.35;2.00;;;27.20;90.70;;;;;;5033451;28;20074;-55
2023/07/16 08:13:21;;;;;;;5.88;2.08;;;27.60;90.50;;;;;;5033348;28;20060;-51
2023/07/16 08:15:47;;;;;;;2.80;1.90;;;28.00;89.40;;;;;;5033119;28;20044;-52
2023/07/16 08:18:13;;;;;;;5.15;2.00;;;27.90;88.20;;;;;;5032878;28;20093;-51
2023/07/16 08:20:40;;;;;;;5.43;2.30;;;28.10;88.70;;;;;;5032991;28;20036;-50
2023/07/16 08:23:06;;;;;;;4.13;2.40;;;27.90;88.80;;;;;;5033415;28;20021;-56
2023/07/16 08:25:31;;;;;;;9.70;2.22;;;27.60;88.50;;;;;;5031982;28;20476;-56
2023/07/16 08:27:57;;;;;;;6.25;2.45;;;27.10;90.00;;;;;;5033105;28;20025;-55
2023/07/16 08:30:22;;;;;;;5.82;1.90;;;26.50;90.80;;;;;;5033222;28;20029;-52
2023/07/16 08:32:48;;;;;;;9.40;2.45;;;26.30;90.80;;;;;;5032426;28;20032;-54
2023/07/16 08:35:16;;;;;;;8.38;2.30;;;25.90;91.00;;;;;;5032739;28;20053;-55
2023/07/16 08:37:42;;;;;;;8.10;2.17;;;25.50;91.70;;;;;;5031319;28;20029;-53
2023/07/16 08:40:09;;;;;;;4.35;2.15;;;25.10;92.70;;;;;;5032809;28;20040;-52
2023/07/16 08:42:37;;;;;;;8.20;2.83;;;25.30;92.40;;;;;;5032817;28;20032;-54
2023/07/16 08:45:05;;;;;;;7.88;2.47;;;25.60;92.60;;;;;;5032813;28;20056;-56
2023/07/16 08:47:30;;;;;;;9.85;2.67;;;25.90;91.80;;;;;;5032392;28;20029;-53
2023/07/16 08:49:56;;;;;;;8.80;2.58;;;26.20;91.40;;;;;;5032556;28;20477;-53
2023/07/16 08:52:22;;;;;;;4.97;1.98;;;26.20;90.40;;;;;;5032714;28;20032;-52
2023/07/16 08:54:47;;;;;;;13.27;3.33;;;25.80;90.50;;;;;;5032583;28;20040;-50
2023/07/16 08:57:14;;;;;;;5.15;2.25;;;25.50;91.20;;;;;;5032233;28;20385;-51
2023/07/16 08:59:40;;;;;;;5.60;2.35;;;25.00;91.80;;;;;;5032633;28;20060;-54
2023/07/16 09:02:06;;;;;;;6.93;2.30;;;25.00;92.00;;;;;;5032641;28;20147;-55
2023/07/16 09:04:32;;;;;;;8.25;2.25;;;24.90;92.00;;;;;;5032373;28;20025;-56
2023/07/16 09:06:58;;;;;;;5.68;2.03;;;24.80;91.80;;;;;;5032165;28;20029;-53
2023/07/16 09:09:24;;;;;;;6.07;2.47;;;24.60;91.60;;;;;;5032302;28;20123;-52
2023/07/16 09:11:50;;;;;;;3.13;1.95;;;24.30;92.00;;;;;;5032793;28;20029;-55
2023/07/16 09:14:20;;;;;;;8.60;2.40;;;23.90;92.90;;;;;;5032162;28;20033;-53
2023/07/16 09:16:49;;;;;;;6.60;2.35;;;24.20;92.40;;;;;;5031599;28;20025;-55
2023/07/16 09:19:17;;;;;;;5.97;2.58;;;24.30;92.90;;;;;;5032113;28;20512;-54
2023/07/16 09:21:42;;;;;;;4.55;2.50;;;24.10;93.30;;;;;;5032277;28;20068;-50
2023/07/16 09:24:08;;;;;;;4.25;1.95;;;24.20;93.10;;;;;;5032056;28;20037;-55
2023/07/16 09:26:37;;;;;;;8.43;3.10;;;24.70;92.70;;;;;;5031912;28;20033;-53
2023/07/16 09:29:07;;;;;;;11.85;2.72;;;24.50;92.50;;;;;;5032074;28;20455;-53
2023/07/16 09:31:32;;;;;;;8.02;2.30;;;24.30;92.30;;;;;;5032184;28;20021;-50
2023/07/16 09:33:58;;;;;;;5.43;2.10;;;24.00;92.80;;;;;;5031975;28;20071;-53
2023/07/16 09:36:27;;;;;;;5.68;2.60;;;23.60;93.10;;;;;;5030524;28;20026;-51
2023/07/16 09:38:54;;;;;;;5.05;2.13;;;23.70;93.70;;;;;;5032232;28;20022;-53
2023/07/16 09:41:21;;;;;;;6.03;2.55;;;23.80;94.00;;;;;;5032120;28;20033;-56
2023/07/16 09:43:47;;;;;;;5.10;2.72;;;23.80;93.50;;;;;;5031931;28;20079;-54
2023/07/16 09:46:12;;;;;;;7.30;2.28;;;23.70;93.10;;;;;;5031469;28;20419;-53
2023/07/16 09:48:38;;;;;;;7.63;2.17;;;23.80;93.20;;;;;;5031918;28;20095;-53
2023/07/16 09:51:06;;;;;;;4.95;2.63;;;23.90;92.80;;;;;;5031931;28;20108;-55
2023/07/16 09:53:34;;;;;;;4.80;2.65;;;24.20;93.00;;;;;;5031814;28;20041;-57
2023/07/16 09:56:01;;;;;;;6.18;2.58;;;24.40;92.60;;;;;;5032082;28;20388;-55
2023/07/16 09:58:27;;;;;;;7.53;2.97;;;24.60;92.40;;;;;;5030431;28;20032;-56
2023/07/16 10:00:52;;;;;;;17.38;4.43;;;25.00;92.60;;;;;;5031931;28;20120;-56
2023/07/16 10:03:18;;;;;;;5.65;1.90;;;25.40;92.10;;;;;;5031653;28;20034;-55
2023/07/16 10:05:43;;;;;;;5.47;2.42;;;25.60;91.00;;;;;;5031522;28;20095;-53
2023/07/16 10:08:17;;;;;;;5.20;2.30;;;25.70;89.60;;;;;;5031581;28;20071;-56
2023/07/16 10:10:57;;;;;;;4.47;3.00;;;25.80;90.00;;;;;;5032235;28;20032;-55
2023/07/16 10:13:24;;;;;;;4.50;1.90;;;25.60;89.50;;;;;;5030417;28;20075;-55
2023/07/16 10:15:55;;;;;;;5.28;2.30;;;25.30;89.50;;;;;;5031240;28;20025;-52
2023/07/16 10:18:27;;;;;;;5.95;2.40;;;25.30;90.20;;;;;;5031757;28;20483;-53
2023/07/16 10:20:53;;;;;;;7.07;1.98;;;25.40;90.70;;;;;;5031465;28;20041;-51
2023/07/16 10:23:18;;;;;;;8.73;2.70;;;25.30;88.70;;;;;;5031677;28;20060;-52
2023/07/16 10:26:06;;;;;;;9.18;2.65;;;25.00;90.10;;;;;;5031531;28;20034;-54
2023/07/16 10:28:35;;;;;;;5.25;2.00;;;25.00;89.20;;;;;;5031539;28;20053;-54
2023/07/16 10:31:01;;;;;;;3.85;1.98;;;25.00;89.10;;;;;;5031602;28;20026;-56
2023/07/16 10:33:27;;;;;;;8.57;2.28;;;24.90;89.10;;;;;;5031334;28;20025;-53
2023/07/16 10:35:53;;;;;;;5.40;2.05;;;25.00;90.00;;;;;;5031319;28;20021;-52
2023/07/16 10:38:18;;;;;;;9.00;2.40;;;25.00;89.80;;;;;;5031816;28;20052;-54
2023/07/16 10:40:45;;;;;;;7.78;2.40;;;25.00;89.50;;;;;;5031415;28;20029;-56
2023/07/16 10:43:11;;;;;;;6.80;2.03;;;25.00;89.70;;;;;;5031488;28;20026;-54
2023/07/16 10:45:37;;;;;;;8.02;2.50;;;25.20;90.20;;;;;;5031335;28;20021;-54
2023/07/16 10:48:03;;;;;;;7.78;2.10;;;25.00;87.20;;;;;;5031157;28;20382;-53
2023/07/16 10:50:31;;;;;;;5.35;1.85;;;25.00;88.50;;;;;;5031358;28;20029;-54
2023/07/16 10:52:57;;;;;;;4.85;2.00;;;25.00;88.60;;;;;;5031441;28;20032;-54
2023/07/16 10:55:23;;;;;;;3.05;1.73;;;25.00;90.00;;;;;;5031369;28;20017;-55
2023/07/16 10:57:50;;;;;;;10.40;2.20;;;25.20;87.80;;;;;;5033793;28;20043;-53
2023/07/16 11:00:17;;;;;;;2.80;1.80;;;25.20;87.70;;;;;;5035051;28;20048;-54
2023/07/16 11:02:44;;;;;;;2.80;2.08;;;25.10;87.30;;;;;;5035021;28;20026;-53
2023/07/16 11:05:14;;;;;;;3.70;2.03;;;24.80;88.00;;;;;;5034957;28;20125;-55
2023/07/16 11:07:46;;;;;;;5.45;2.03;;;24.70;88.40;;;;;;5034544;28;20029;-55
2023/07/16 11:10:14;;;;;;;5.85;1.85;;;24.60;87.80;;;;;;5034765;28;20025;-55
2023/07/16 11:12:41;;;;;;;5.22;2.10;;;24.50;88.60;;;;;;5034690;28;20044;-56
2023/07/16 11:15:08;;;;;;;3.85;2.38;;;24.50;89.90;;;;;;5034591;28;20036;-55
2023/07/16 11:17:33;;;;;;;5.78;2.13;;;24.60;90.00;;;;;;5033868;28;20101;-55
2023/07/16 11:20:00;;;;;;;2.53;2.17;;;24.80;90.10;;;;;;5034559;28;20155;-57
2023/07/16 11:22:26;;;;;;;8.85;2.42;;;24.90;89.90;;;;;;5033359;28;20369;-57
2023/07/16 11:24:52;;;;;;;8.10;2.40;;;24.90;90.40;;;;;;5033097;28;20025;-54
2023/07/16 11:27:24;;;;;;;4.28;2.20;;;24.80;90.40;;;;;;5034153;28;20033;-54
2023/07/16 11:29:55;;;;;;;4.43;2.63;;;24.80;90.50;;;;;;5035130;28;20388;-53
2023/07/16 11:32:31;;;;;;;6.68;3.33;;;24.80;90.20;;;;;;5034657;28;20036;-56
2023/07/16 11:34:58;;;;;;;7.32;2.72;;;24.80;88.30;;;;;;5034707;28;20480;-56
2023/07/16 11:37:28;;;;;;;6.72;1.95;;;24.80;90.30;;;;;;5033919;28;20033;-54
2023/07/16 11:39:58;;;;;;;10.73;2.67;;;24.70;90.20;;;;;;5033146;28;20117;-57
2023/07/16 11:42:28;;;;;;;6.88;2.50;;;24.60;90.30;;;;;;5034324;28;20044;-52
2023/07/16 11:44:54;;;;;;;4.50;2.10;;;24.60;89.60;;;;;;5034385;28;20404;-53
2023/07/16 11:47:20;;;;;;;4.93;2.28;;;24.50;88.70;;;;;;5033812;28;20280;-56
2023/07/16 11:49:45;;;;;;;5.32;2.10;;;24.50;89.40;;;;;;5034700;28;20546;-53
2023/07/16 11:52:11;;;;;;;6.63;2.40;;;24.50;89.50;;;;;;5034467;28;20029;-55
2023/07/16 11:54:36;;;;;;;4.57;2.20;;;24.50;88.20;;;;;;5033921;28;20087;-55
2023/07/16 11:57:02;;;;;;;6.65;2.33;;;24.60;87.40;;;;;;5033689;28;20030;-55
2023/07/16 11:59:28;;;;;;;3.47;2.08;;;24.60;88.60;;;;;;5033865;28;20388;-55
2023/07/16 12:01:54;;;;;;;13.75;2.42;;;24.70;87.20;;;;;;5033776;28;20057;-55
2023/07/16 12:04:19;;;;;;;4.25;2.17;;;24.70;89.20;;;;;;5033635;28;20060;-57
2023/07/16 12:06:46;;;;;;;5.53;2.88;;;24.80;88.40;;;;;;5033474;28;20081;-53
2023/07/16 12:09:11;;;;;;;6.40;2.17;;;24.80;86.70;;;;;;5033722;28;20022;-55
2023/07/16 12:11:37;;;;;;;6.10;2.28;;;24.80;87.70;;;;;;5033975;28;20435;-55
2023/07/16 12:14:04;;;;;;;5.38;2.10;;;24.80;88.60;;;;;;5033567;28;20021;-56
2023/07/16 12:16:29;;;;;;;7.57;2.03;;;24.70;85.30;;;;;;5032987;28;20025;-54
2023/07/16 12:18:55;;;;;;;4.80;2.28;;;24.60;86.00;;;;;;5033327;28;20484;-55
2023/07/16 12:21:20;;;;;;;4.60;2.10;;;24.60;86.70;;;;;;5033389;28;20034;-55
2023/07/16 12:23:46;;;;;;;4.65;2.42;;;24.70;87.20;;;;;;5033365;28;20029;-51
2023/07/16 12:26:12;;;;;;;5.55;2.28;;;24.80;85.40;;;;;;5033207;28;20029;-55
2023/07/16 12:28:37;;;;;;;4.50;2.10;;;24.90;86.20;;;;;;5032560;28;20026;-56
2023/07/16 12:31:03;;;;;;;5.07;2.13;;;25.00;86.50;;;;;;5034179;28;20423;-54
2023/07/16 12:33:28;;;;;;;4.15;2.63;;;25.10;87.10;;;;;;5033521;28;20492;-57
2023/07/16 12:35:54;;;;;;;7.25;2.90;;;25.00;84.50;;;;;;5033013;28;20044;-51
2023/07/16 12:38:20;;;;;;;5.28;3.28;;;25.00;85.50;;;;;;5033344;28;20024;-51
2023/07/16 12:40:45;;;;;;;6.00;2.58;;;25.00;85.50;;;;;;5033106;28;20072;-50
2023/07/16 12:43:11;;;;;;;5.38;2.65;;;25.40;85.40;;;;;;5031872;28;20026;-51
2023/07/16 12:45:36;;;;;;;7.90;2.30;;;25.00;84.70;;;;;;5032791;28;20029;-52